Time;durP1;ratioP1;P1;durP2;ratioP2;P2;SDS_P1;SDS_P2;PMS_P1;PMS_P2;Temp;Humidity;BMP_temperature;BMP_pressure;BME280_temperature;BME280_humidity;BME280_pressure;Samples;Min_cycle;Max_cycle;Signal;HPM_P1;HPM_P2
2022/09/04 00:05:24;;;;;;;4.05;0.70;;;13.10;99.90;;;;;;5111181;27;20756;-74
2022/09/04 00:07:53;;;;;;;0.52;0.52;;;13.20;99.90;;;;;;5092434;28;20043;-75
2022/09/04 00:10:29;;;;;;;0.95;0.80;;;13.20;99.90;;;;;;5111539;28;20103;-78
2022/09/04 00:12:58;;;;;;;0.43;0.43;;;13.20;99.90;;;;;;5111281;28;20034;-74
2022/09/04 00:15:33;;;;;;;0.47;0.47;;;13.20;99.90;;;;;;5111318;28;20476;-76
2022/09/04 00:18:07;;;;;;;0.43;0.43;;;13.10;99.90;;;;;;5111285;28;20032;-77
2022/09/04 00:20:46;;;;;;;2.63;1.35;;;13.10;99.90;;;;;;5111129;28;20043;-74
2022/09/04 00:23:56;;;;;;;1.52;0.88;;;13.10;99.90;;;;;;5110973;28;20032;-75
2022/09/04 00:26:55;;;;;;;1.33;1.20;;;13.10;99.90;;;;;;5088403;28;20034;-75
2022/09/04 00:29:49;;;;;;;0.60;0.60;;;13.10;99.90;;;;;;5111174;28;20545;-74
2022/09/04 00:32:36;;;;;;;0.43;0.43;;;13.10;99.90;;;;;;5110960;28;20058;-75
2022/09/04 00:35:17;;;;;;;0.52;0.50;;;13.20;99.90;;;;;;5110760;28;20354;-74
2022/09/04 00:38:02;;;;;;;0.68;0.40;;;13.30;99.90;;;;;;5110872;28;20027;-76
2022/09/04 00:40:30;;;;;;;2.50;0.32;;;13.20;99.90;;;;;;5110811;28;20016;-76
2022/09/04 00:43:28;;;;;;;0.40;0.40;;;13.20;99.90;;;;;;5109344;28;20023;-75
2022/09/04 00:46:16;;;;;;;0.43;0.43;;;13.10;99.90;;;;;;5110816;28;20019;-74
2022/09/04 00:49:07;;;;;;;0.43;0.43;;;13.00;99.90;;;;;;5110729;28;20027;-76
2022/09/04 00:51:51;;;;;;;0.60;0.50;;;12.90;99.90;;;;;;5111074;28;20477;-76
2022/09/04 00:54:30;;;;;;;0.60;0.60;;;12.80;99.90;;;;;;5110694;28;20145;-74
2022/09/04 00:57:12;;;;;;;0.90;0.85;;;12.80;99.90;;;;;;5110476;28;20027;-74
2022/09/04 01:00:15;;;;;;;0.25;0.22;;;12.80;99.90;;;;;;5110408;28;20030;-77
2022/09/04 01:03:02;;;;;;;0.43;0.43;;;12.80;99.90;;;;;;5113029;28;20058;-77
2022/09/04 01:06:09;;;;;;;0.57;0.47;;;12.70;99.90;;;;;;5130910;28;20098;-75
2022/09/04 01:08:55;;;;;;;0.35;0.35;;;12.60;99.90;;;;;;5131002;28;20027;-75
2022/09/04 01:11:42;;;;;;;0.38;0.38;;;12.60;99.90;;;;;;5112397;28;20027;-74
2022/09/04 01:14:23;;;;;;;0.45;0.45;;;12.60;99.90;;;;;;5128562;28;20088;-77
2022/09/04 01:17:15;;;;;;;0.30;0.30;;;12.60;99.90;;;;;;5098528;28;20136;-77
2022/09/04 01:19:48;;;;;;;0.45;0.43;;;12.60;99.90;;;;;;5116787;28;20019;-74
2022/09/04 01:22:32;;;;;;;0.98;0.57;;;12.60;99.90;;;;;;5116881;28;20019;-76
2022/09/04 01:25:34;;;;;;;0.80;0.68;;;12.60;99.90;;;;;;5116800;28;20441;-75
2022/09/04 01:28:27;;;;;;;0.50;0.50;;;12.70;99.90;;;;;;5098669;28;20020;-75
2022/09/04 01:31:15;;;;;;;0.93;0.88;;;12.70;99.90;;;;;;5116689;28;20026;-74
2022/09/04 01:34:07;;;;;;;0.52;0.52;;;12.70;99.90;;;;;;5116604;28;20464;-77
2022/09/04 01:37:02;;;;;;;0.88;0.70;;;12.70;99.90;;;;;;5116598;28;20024;-74
2022/09/04 01:39:32;;;;;;;0.57;0.28;;;12.80;99.90;;;;;;5116429;28;20024;-74
2022/09/04 01:42:33;;;;;;;;;;;12.80;99.90;;;;;;5116962;28;20047;-75
2022/09/04 01:45:02;;;;;;;0.85;0.30;;;12.80;99.90;;;;;;5033771;28;19952;-75
2022/09/04 01:47:49;;;;;;;0.50;0.50;;;12.80;99.90;;;;;;5101548;28;20036;-74
2022/09/04 01:50:20;;;;;;;0.80;0.55;;;12.80;99.90;;;;;;5116229;28;20047;-77
2022/09/04 01:53:03;;;;;;;0.50;0.50;;;12.80;99.90;;;;;;5116231;28;20084;-75
2022/09/04 01:55:50;;;;;;;5.97;0.88;;;12.60;99.90;;;;;;5116202;28;20020;-77
2022/09/04 01:58:19;;;;;;;1.10;0.98;;;;;;;;;;5116197;28;20028;-74
2022/09/04 02:01:26;;;;;;;0.60;0.43;;;12.50;99.90;;;;;;5116045;28;20476;-77
2022/09/04 02:04:19;;;;;;;0.77;0.77;;;12.50;99.90;;;;;;5114791;28;20048;-77
2022/09/04 02:07:12;;;;;;;0.85;0.75;;;12.50;99.90;;;;;;5097602;28;20068;-74
2022/09/04 02:10:05;;;;;;;1.20;0.90;;;12.50;99.90;;;;;;5115865;28;20030;-74
2022/09/04 02:13:03;;;;;;;2.08;0.98;;;12.50;99.90;;;;;;5115835;28;20483;-77
2022/09/04 02:15:36;;;;;;;4.68;0.65;;;12.70;99.90;;;;;;5115920;28;20028;-75
2022/09/04 02:18:44;;;;;;;4.53;1.88;;;12.70;99.90;;;;;;5115966;28;20020;-74
2022/09/04 02:21:16;;;;;;;0.60;0.60;;;12.80;99.90;;;;;;5115654;28;20024;-75
2022/09/04 02:23:51;;;;;;;1.08;0.68;;;12.90;99.90;;;;;;5115599;28;20042;-74
2022/09/04 02:26:43;;;;;;;0.40;0.40;;;12.80;99.90;;;;;;5114525;28;20020;-77
2022/09/04 02:29:27;;;;;;;1.13;0.65;;;12.80;99.90;;;;;;5115415;28;20023;-74
2022/09/04 02:31:55;;;;;;;1.17;1.08;;;12.60;99.90;;;;;;5115541;28;20042;-76
2022/09/04 02:34:40;;;;;;;0.75;0.75;;;12.60;99.90;;;;;;5097226;28;20050;-77
2022/09/04 02:37:19;;;;;;;1.92;1.40;;;12.50;99.90;;;;;;5115525;28;20120;-78
2022/09/04 02:40:02;;;;;;;0.88;0.88;;;12.50;99.90;;;;;;5115636;28;20031;-74
2022/09/04 02:42:53;;;;;;;8.38;0.73;;;12.50;99.90;;;;;;5115160;28;20097;-77
2022/09/04 02:45:32;;;;;;;1.42;0.95;;;12.40;99.90;;;;;;5115427;28;20084;-77
2022/09/04 02:48:03;;;;;;;;;;;12.40;99.90;;;;;;5116111;28;20383;-78
2022/09/04 02:50:38;;;;;;;1.00;0.95;;;12.40;99.90;;;;;;5115379;28;19994;-77
2022/09/04 02:53:15;;;;;;;0.65;0.65;;;12.40;99.90;;;;;;5115277;28;20020;-76
2022/09/04 02:56:19;;;;;;;1.27;0.90;;;12.30;99.90;;;;;;5115056;28;20044;-76
2022/09/04 02:59:27;;;;;;;0.32;0.32;;;12.40;99.90;;;;;;5114916;28;20024;-74
2022/09/04 03:01:58;;;;;;;1.23;0.77;;;12.30;99.90;;;;;;5114138;28;20468;-74
2022/09/04 03:04:51;;;;;;;0.98;0.80;;;12.30;99.90;;;;;;5114453;28;20051;-75
2022/09/04 03:07:35;;;;;;;0.60;0.60;;;12.30;99.90;;;;;;5096515;28;20434;-75
2022/09/04 03:10:13;;;;;;;1.85;0.80;;;12.20;99.90;;;;;;5096494;28;20093;-74
2022/09/04 03:12:54;;;;;;;0.88;0.88;;;12.20;99.90;;;;;;5114804;28;20027;-74
2022/09/04 03:15:29;;;;;;;0.82;0.82;;;12.20;99.90;;;;;;5114861;28;20031;-76
2022/09/04 03:18:17;;;;;;;0.68;0.38;;;12.20;99.90;;;;;;5114782;28;20036;-76
2022/09/04 03:21:06;;;;;;;1.65;0.77;;;12.20;99.90;;;;;;5114478;28;20387;-74
2022/09/04 03:23:44;;;;;;;0.40;0.40;;;12.10;99.90;;;;;;5096115;28;20122;-75
2022/09/04 03:26:26;;;;;;;2.83;0.70;;;12.10;99.90;;;;;;5114308;28;20070;-76
2022/09/04 03:29:00;;;;;;;16.55;1.00;;;12.10;99.90;;;;;;5114392;28;20028;-74
2022/09/04 03:31:39;;;;;;;0.65;0.65;;;12.10;99.90;;;;;;5114389;28;20015;-74
2022/09/04 03:34:43;;;;;;;1.27;0.67;;;12.00;99.90;;;;;;5114389;28;20076;-78
2022/09/04 03:37:21;;;;;;;0.57;0.57;;;;;;;;;;5011983;28;20537;-76
2022/09/04 03:39:58;;;;;;;1.45;0.80;;;12.00;99.90;;;;;;4995401;28;20125;-77
2022/09/04 03:42:59;;;;;;;1.48;1.17;;;12.00;99.90;;;;;;5075827;28;20536;-76
2022/09/04 03:45:43;;;;;;;0.25;0.25;;;12.10;99.90;;;;;;5114264;28;20028;-74
2022/09/04 03:48:40;;;;;;;5.72;1.65;;;12.10;99.90;;;;;;5114241;28;20059;-74
2022/09/04 03:51:24;;;;;;;0.82;0.63;;;12.00;99.90;;;;;;5114173;28;20023;-74
2022/09/04 03:54:14;;;;;;;4.60;1.25;;;12.10;99.90;;;;;;5114060;28;20432;-74
2022/09/04 03:57:14;;;;;;;1.02;1.02;;;12.20;99.90;;;;;;5114093;28;20027;-74
2022/09/04 04:00:10;;;;;;;1.17;1.08;;;12.30;99.90;;;;;;5113812;28;20027;-74
2022/09/04 04:02:58;;;;;;;0.50;0.50;;;12.30;99.90;;;;;;5095551;28;20098;-75
2022/09/04 04:05:35;;;;;;;1.65;1.05;;;12.20;99.90;;;;;;5114010;28;20032;-74
2022/09/04 04:08:16;;;;;;;0.80;0.47;;;12.10;99.90;;;;;;5113876;28;20482;-74
2022/09/04 04:11:02;;;;;;;1.73;1.17;;;12.10;99.90;;;;;;5114027;28;20032;-74
2022/09/04 04:13:58;;;;;;;0.30;0.30;;;12.10;99.90;;;;;;5095859;28;20031;-74
2022/09/04 04:16:39;;;;;;;0.55;0.55;;;12.00;99.90;;;;;;5113669;28;20019;-74
2022/09/04 04:19:13;;;;;;;0.50;0.50;;;12.00;99.90;;;;;;5113849;28;20053;-74
2022/09/04 04:22:10;;;;;;;0.60;0.60;;;11.90;99.90;;;;;;5113809;28;20244;-75
2022/09/04 04:24:46;;;;;;;0.30;0.30;;;11.90;99.90;;;;;;5095436;28;20423;-77
2022/09/04 04:27:34;;;;;;;0.60;0.60;;;11.90;99.90;;;;;;5095660;28;20015;-78
2022/09/04 04:30:05;;;;;;;0.30;0.30;;;11.90;99.90;;;;;;5095627;28;20020;-74
2022/09/04 04:32:33;;;;;;;0.80;0.80;;;12.00;99.90;;;;;;5113814;28;20059;-76
2022/09/04 04:35:09;;;;;;;0.40;0.38;;;12.00;99.90;;;;;;5095434;28;20030;-74
2022/09/04 04:38:12;;;;;;;0.60;0.60;;;12.00;99.90;;;;;;5113537;28;20038;-76
2022/09/04 04:41:13;;;;;;;0.40;0.40;;;12.00;99.90;;;;;;5095329;28;20478;-75
2022/09/04 04:44:05;;;;;;;0.40;0.40;;;12.00;99.90;;;;;;5095312;28;20032;-77
2022/09/04 04:46:41;;;;;;;0.50;0.50;;;11.90;99.90;;;;;;5113674;28;20024;-78
2022/09/04 04:49:36;;;;;;;1.38;0.50;;;11.90;99.90;;;;;;5095343;28;20391;-76
2022/09/04 04:52:22;;;;;;;0.75;0.75;;;12.00;99.90;;;;;;5119682;28;20019;-78
2022/09/04 04:55:05;;;;;;;0.68;0.68;;;12.10;99.90;;;;;;5122358;28;20028;-75
2022/09/04 04:58:04;;;;;;;1.05;0.95;;;12.20;99.90;;;;;;5125967;28;20015;-76
2022/09/04 05:00:39;;;;;;;0.40;0.40;;;12.20;99.90;;;;;;5127981;28;20022;-75
2022/09/04 05:03:31;;;;;;;0.60;0.60;;;12.30;99.90;;;;;;5125636;28;20043;-76
2022/09/04 05:06:40;;;;;;;1.30;0.90;;;12.20;99.90;;;;;;5101042;28;20028;-76
2022/09/04 05:09:24;;;;;;;0.75;0.75;;;12.20;99.90;;;;;;5106669;28;20476;-77
2022/09/04 05:12:02;;;;;;;3.72;0.98;;;12.20;99.90;;;;;;5119102;28;20023;-76
2022/09/04 05:15:07;;;;;;;7.00;1.02;;;12.20;99.90;;;;;;5105226;28;20027;-77
2022/09/04 05:17:47;;;;;;;1.13;0.50;;;12.10;99.90;;;;;;5119587;28;20031;-74
2022/09/04 05:20:27;;;;;;;0.88;0.88;;;12.20;99.90;;;;;;5106300;28;20220;-74
2022/09/04 05:23:04;;;;;;;1.60;1.50;;;12.20;99.90;;;;;;5124693;28;20031;-75
2022/09/04 05:25:41;;;;;;;1.08;1.08;;;12.20;99.90;;;;;;5126299;28;20037;-75
2022/09/04 05:28:10;;;;;;;0.90;0.77;;;12.10;99.90;;;;;;5099403;28;20024;-75
2022/09/04 05:30:46;;;;;;;1.17;0.45;;;12.20;99.90;;;;;;5121722;28;20034;-75
2022/09/04 05:33:47;;;;;;;1.63;0.90;;;12.30;99.90;;;;;;5106435;28;20016;-78
2022/09/04 05:36:45;;;;;;;2.33;1.17;;;12.40;99.90;;;;;;5117233;28;20031;-75
2022/09/04 05:39:22;;;;;;;0.65;0.43;;;12.40;99.90;;;;;;5116717;28;20427;-75
2022/09/04 05:42:02;;;;;;;1.40;1.30;;;12.40;99.90;;;;;;5120438;28;20023;-75
2022/09/04 05:44:36;;;;;;;;;;;12.40;99.90;;;;;;5118575;28;20032;-77
2022/09/04 05:47:40;;;;;;;0.65;0.60;;;12.50;99.90;;;;;;5118698;28;20264;-75
2022/09/04 05:50:26;;;;;;;1.17;0.50;;;12.80;99.90;;;;;;5069497;28;20063;-75
2022/09/04 05:53:46;;;;;;;1.02;1.02;;;12.90;99.90;;;;;;5070082;28;20365;-75
2022/09/04 05:56:25;;;;;;;0.60;0.60;;;12.90;99.90;;;;;;4997133;28;20029;-75
2022/09/04 05:59:17;;;;;;;;;;;13.10;99.90;;;;;;5105252;28;20123;-77
2022/09/04 06:02:21;;;;;;;2.38;0.73;;;13.40;99.90;;;;;;5067214;28;19957;-77
2022/09/04 06:04:50;;;;;;;1.27;0.85;;;13.50;99.90;;;;;;5115713;28;20043;-78
2022/09/04 06:07:31;;;;;;;1.67;1.15;;;13.60;99.90;;;;;;5116422;28;20020;-75
2022/09/04 06:10:35;;;;;;;0.60;0.60;;;13.70;99.90;;;;;;5116072;28;20032;-75
2022/09/04 06:13:20;;;;;;;1.17;0.88;;;13.90;99.90;;;;;;5046596;28;20028;-78
2022/09/04 06:16:01;;;;;;;3.75;2.08;;;14.20;99.90;;;;;;5097304;28;20102;-76
2022/09/04 06:19:09;;;;;;;1.00;0.90;;;14.40;99.90;;;;;;5115509;28;20028;-75
2022/09/04 06:22:07;;;;;;;0.85;0.55;;;14.60;99.90;;;;;;5115408;28;20489;-76
2022/09/04 06:24:57;;;;;;;1.50;1.43;;;14.70;99.90;;;;;;5115363;28;20028;-78
2022/09/04 06:27:52;;;;;;;0.90;0.73;;;14.70;99.90;;;;;;5115323;28;20027;-76
2022/09/04 06:30:18;;;;;;;1.10;0.65;;;14.80;99.90;;;;;;5115223;28;20547;-76
2022/09/04 06:33:15;;;;;;;1.17;1.08;;;14.80;99.90;;;;;;5115213;28;20051;-75
2022/09/04 06:35:54;;;;;;;0.80;0.68;;;14.90;99.90;;;;;;5115169;28;20019;-76
2022/09/04 06:38:47;;;;;;;1.38;1.27;;;15.10;99.90;;;;;;5115017;28;20020;-76
2022/09/04 06:41:28;;;;;;;1.15;0.73;;;15.30;99.90;;;;;;5114900;28;20024;-78
2022/09/04 06:44:24;;;;;;;0.95;0.95;;;15.60;99.90;;;;;;5096598;28;20035;-77
2022/09/04 06:47:05;;;;;;;1.33;0.65;;;15.60;99.90;;;;;;5114901;28;20027;-77
2022/09/04 06:49:34;;;;;;;0.80;0.80;;;15.60;99.90;;;;;;5096763;28;20490;-78
2022/09/04 06:52:11;;;;;;;0.45;0.45;;;15.90;99.90;;;;;;5114847;28;20032;-77
2022/09/04 06:54:54;;;;;;;0.98;0.70;;;15.90;99.90;;;;;;5114885;28;20028;-76
2022/09/04 06:57:57;;;;;;;0.77;0.77;;;15.90;99.90;;;;;;5096321;28;20028;-79
2022/09/04 07:00:22;;;;;;;0.60;0.50;;;16.20;99.90;;;;;;5096184;28;20483;-77
2022/09/04 07:03:03;;;;;;;0.82;0.82;;;16.30;99.90;;;;;;5096480;28;20040;-78
2022/09/04 07:05:44;;;;;;;1.00;0.70;;;16.20;99.90;;;;;;5096105;28;20035;-79
2022/09/04 07:08:37;;;;;;;1.40;1.30;;;16.40;99.90;;;;;;5114679;28;20065;-77
2022/09/04 07:11:22;;;;;;;1.48;0.73;;;16.60;99.90;;;;;;5096198;28;20042;-78
2022/09/04 07:14:18;;;;;;;0.52;0.52;;;16.70;99.90;;;;;;5096885;28;20471;-77
2022/09/04 07:16:49;;;;;;;1.65;1.20;;;16.80;99.90;;;;;;5026752;28;20034;-79
2022/09/04 07:19:39;;;;;;;1.42;0.63;;;17.00;99.90;;;;;;5101005;28;20019;-78
2022/09/04 07:22:22;;;;;;;2.55;0.43;;;17.20;99.90;;;;;;5101848;28;20369;-79
2022/09/04 07:25:16;;;;;;;0.50;0.50;;;17.40;99.90;;;;;;5097937;28;20062;-79
2022/09/04 07:28:13;;;;;;;1.17;1.13;;;17.60;99.90;;;;;;5114819;28;20072;-79
2022/09/04 07:30:51;;;;;;;0.77;0.77;;;17.60;99.90;;;;;;5114589;28;20051;-80
2022/09/04 07:33:27;;;;;;;0.77;0.70;;;17.80;99.90;;;;;;5101587;28;20312;-79
2022/09/04 07:36:11;;;;;;;1.08;0.38;;;17.80;99.90;;;;;;5117124;28;20272;-78
2022/09/04 07:39:01;;;;;;;0.70;0.70;;;17.90;99.90;;;;;;5099425;28;20119;-78
2022/09/04 07:41:45;;;;;;;2.08;0.73;;;18.10;99.90;;;;;;5117997;28;20315;-79
2022/09/04 07:44:23;;;;;;;1.27;1.17;;;18.30;99.90;;;;;;5122018;28;20067;-79
2022/09/04 07:46:58;;;;;;;0.22;0.22;;;18.30;99.90;;;;;;5102460;28;20023;-78
2022/09/04 07:49:42;;;;;;;0.50;0.45;;;18.40;99.90;;;;;;5118774;28;20049;-78
2022/09/04 07:52:08;;;;;;;0.80;0.77;;;18.40;99.90;;;;;;5114485;28;20012;-76
2022/09/04 07:54:39;;;;;;;0.90;0.90;;;18.30;99.90;;;;;;5115190;28;20123;-75
2022/09/04 07:57:10;;;;;;;0.70;0.70;;;18.30;99.90;;;;;;5113853;28;20026;-75
2022/09/04 08:00:05;;;;;;;1.10;0.82;;;18.30;99.90;;;;;;5115782;28;20028;-76
2022/09/04 08:02:42;;;;;;;0.30;0.30;;;18.10;99.90;;;;;;5115017;28;20024;-75
2022/09/04 08:05:29;;;;;;;1.13;1.02;;;18.20;99.90;;;;;;5101961;28;20228;-75
2022/09/04 08:08:04;;;;;;;0.98;0.93;;;18.10;99.90;;;;;;5124247;28;20016;-75
2022/09/04 08:10:59;;;;;;;0.20;0.20;;;18.10;99.90;;;;;;5106173;28;20023;-76
2022/09/04 08:13:32;;;;;;;1.10;0.60;;;18.20;99.90;;;;;;5081275;28;20027;-77
2022/09/04 08:16:05;;;;;;;1.00;0.90;;;18.30;99.90;;;;;;5101978;28;20516;-76
2022/09/04 08:18:46;;;;;;;0.55;0.55;;;18.60;99.90;;;;;;5104516;28;20023;-76
2022/09/04 08:21:28;;;;;;;1.00;0.82;;;19.10;99.90;;;;;;5122854;28;20019;-76
2022/09/04 08:24:24;;;;;;;10.73;1.55;;;19.50;99.90;;;;;;5119243;28;20065;-76
2022/09/04 08:26:59;;;;;;;1.40;1.27;;;19.90;99.90;;;;;;5117572;28;20043;-78
2022/09/04 08:29:44;;;;;;;1.35;0.60;;;20.50;99.90;;;;;;5099128;28;20030;-78
2022/09/04 08:32:25;;;;;;;1.15;1.15;;;21.60;99.90;;;;;;5117542;28;20502;-75
2022/09/04 08:35:21;;;;;;;0.55;0.55;;;22.90;99.90;;;;;;5099196;28;20379;-75
2022/09/04 08:37:56;;;;;;;0.50;0.50;;;23.50;99.90;;;;;;5117389;28;20031;-75
2022/09/04 08:40:58;;;;;;;0.40;0.40;;;24.40;99.90;;;;;;5117741;28;20107;-76
2022/09/04 08:44:01;;;;;;;1.17;0.65;;;24.50;99.90;;;;;;5099191;28;20024;-75
2022/09/04 08:46:51;;;;;;;0.63;0.63;;;24.50;99.90;;;;;;5117179;28;20016;-76
2022/09/04 08:49:35;;;;;;;0.57;0.55;;;23.70;99.90;;;;;;5117276;28;20103;-76
2022/09/04 08:52:23;;;;;;;1.48;0.65;;;22.80;99.90;;;;;;5117156;28;20495;-76
2022/09/04 08:55:26;;;;;;;0.40;0.22;;;22.50;99.90;;;;;;5117209;28;20035;-76
2022/09/04 08:58:29;;;;;;;1.05;0.90;;;22.80;99.90;;;;;;5117013;28;20099;-75
2022/09/04 09:01:38;;;;;;;0.50;0.50;;;22.40;99.90;;;;;;5116940;28;20471;-76
2022/09/04 09:04:27;;;;;;;0.68;0.60;;;21.90;99.90;;;;;;5094700;28;20055;-77
2022/09/04 09:07:15;;;;;;;0.88;0.88;;;21.60;99.90;;;;;;5116177;28;20023;-77
2022/09/04 09:10:15;;;;;;;0.90;0.60;;;21.20;99.90;;;;;;5116663;28;20480;-77
2022/09/04 09:12:55;;;;;;;2.63;1.10;;;21.30;99.90;;;;;;5116793;28;20098;-77
2022/09/04 09:15:50;;;;;;;0.63;0.30;;;22.10;99.90;;;;;;5116764;28;20023;-75
2022/09/04 09:18:37;;;;;;;1.83;0.50;;;22.70;99.90;;;;;;5094383;28;20035;-75
2022/09/04 09:21:50;;;;;;;2.92;0.60;;;22.80;99.90;;;;;;5116428;28;20023;-75
2022/09/04 09:24:50;;;;;;;0.25;0.25;;;23.20;99.90;;;;;;5116325;28;20044;-77
2022/09/04 09:27:46;;;;;;;0.30;0.30;;;23.00;99.90;;;;;;5111055;28;20031;-75
2022/09/04 09:30:20;;;;;;;0.60;0.60;;;23.00;99.90;;;;;;5094962;28;20032;-74
2022/09/04 09:32:55;;;;;;;2.33;0.60;;;23.00;99.90;;;;;;5124010;28;20039;-76
2022/09/04 09:35:40;;;;;;;0.65;0.35;;;23.50;99.90;;;;;;5108250;28;20064;-77
2022/09/04 09:38:25;;;;;;;0.63;0.40;;;24.30;99.90;;;;;;5108036;28;20031;-75
2022/09/04 09:41:21;;;;;;;0.50;0.50;;;24.70;99.90;;;;;;5121442;28;20030;-75
2022/09/04 09:43:57;;;;;;;0.70;0.60;;;24.90;99.90;;;;;;5121712;28;20034;-76
2022/09/04 09:47:01;;;;;;;0.73;0.60;;;25.00;99.90;;;;;;5098058;28;20349;-74
2022/09/04 09:50:00;;;;;;;18.83;1.50;;;25.40;99.90;;;;;;5064022;28;20085;-74
2022/09/04 09:52:44;;;;;;;0.50;0.50;;;25.50;99.90;;;;;;5116272;28;20035;-74
2022/09/04 09:55:29;;;;;;;4.68;0.73;;;25.30;99.90;;;;;;5115951;28;20073;-75
2022/09/04 09:58:33;;;;;;;0.30;0.30;;;25.10;99.90;;;;;;5115858;28;20120;-75
2022/09/04 10:01:23;;;;;;;0.30;0.30;;;25.00;99.90;;;;;;5115759;28;20020;-75
2022/09/04 10:04:15;;;;;;;0.40;0.40;;;24.90;99.90;;;;;;5115396;28;20092;-74
2022/09/04 10:06:59;;;;;;;2.88;1.02;;;25.10;99.90;;;;;;5115782;28;20072;-75
2022/09/04 10:10:02;;;;;;;0.25;0.25;;;25.00;99.90;;;;;;5097466;28;20047;-74
2022/09/04 10:13:04;;;;;;;0.45;0.38;;;24.90;99.90;;;;;;5115709;28;20055;-75
2022/09/04 10:16:02;;;;;;;0.80;0.80;;;25.20;99.90;;;;;;5115751;28;20039;-76
2022/09/04 10:18:46;;;;;;;0.52;0.40;;;25.60;99.90;;;;;;5115382;28;20089;-75
2022/09/04 10:21:30;;;;;;;0.50;0.50;;;26.00;99.90;;;;;;5097063;28;20023;-73
2022/09/04 10:24:30;;;;;;;0.63;0.45;;;25.90;99.90;;;;;;5097030;28;20040;-76
2022/09/04 10:27:02;;;;;;;1.25;0.50;;;25.80;99.90;;;;;;5096974;28;20024;-75
2022/09/04 10:29:52;;;;;;;2.58;0.47;;;26.20;99.90;;;;;;5115251;28;20016;-75
2022/09/04 10:32:51;;;;;;;0.38;0.30;;;26.50;99.90;;;;;;5096804;28;20131;-75
2022/09/04 10:36:07;;;;;;;0.10;0.10;;;26.90;99.90;;;;;;5063732;28;20034;-77
2022/09/04 10:42:00;;;;;;;1.42;0.52;;;26.90;96.40;;;;;;5115042;28;20043;-76
2022/09/04 10:45:19;;;;;;;0.75;0.75;;;27.10;95.40;;;;;;5115021;28;20384;-75
2022/09/04 10:48:08;;;;;;;0.45;0.40;;;26.70;95.50;;;;;;4995266;28;20065;-75
2022/09/04 10:51:12;;;;;;;0.10;0.10;;;26.80;94.20;;;;;;5103951;28;20472;-74
2022/09/04 10:53:59;;;;;;;1.13;0.80;;;26.60;94.20;;;;;;5114778;28;20076;-74
2022/09/04 10:56:29;;;;;;;0.55;0.32;;;27.40;95.20;;;;;;5114683;28;20489;-75
2022/09/04 10:59:08;;;;;;;9.65;0.30;;;27.60;93.00;;;;;;5114937;28;20016;-74
2022/09/04 11:02:00;;;;;;;0.55;0.55;;;27.70;90.90;;;;;;5114656;28;20034;-75
2022/09/04 11:04:44;;;;;;;0.73;0.60;;;28.10;82.60;;;;;;5109503;28;20047;-74
2022/09/04 11:08:01;;;;;;;0.30;0.30;;;28.40;82.00;;;;;;5096327;28;20027;-74
2022/09/04 11:10:44;;;;;;;0.45;0.45;;;28.80;76.50;;;;;;5058561;28;20038;-75
2022/09/04 11:13:59;;;;;;;0.20;0.20;;;28.70;74.20;;;;;;5114263;28;20020;-74
2022/09/04 11:16:44;;;;;;;0.30;0.30;;;28.50;67.80;;;;;;5061298;28;20082;-75
2022/09/04 11:19:36;;;;;;;2.83;1.00;;;28.40;65.40;;;;;;5096130;28;20024;-75
2022/09/04 11:22:20;;;;;;;0.47;0.47;;;28.50;66.70;;;;;;5096041;28;20030;-75
2022/09/04 11:24:59;;;;;;;0.30;0.30;;;28.90;70.20;;;;;;5095847;28;20065;-76
2022/09/04 11:27:26;;;;;;;0.17;0.17;;;;;;;;;;5114128;28;20069;-74
2022/09/04 11:29:58;;;;;;;0.10;0.10;;;30.10;64.90;;;;;;5095593;28;20027;-75
2022/09/04 11:32:56;;;;;;;0.90;0.30;;;30.00;56.90;;;;;;5095623;28;20096;-74
2022/09/04 11:35:22;;;;;;;0.50;0.50;;;;;;;;;;5095737;28;20034;-75
2022/09/04 11:38:18;;;;;;;1.02;0.20;;;31.00;57.90;;;;;;5113926;28;20096;-75
2022/09/04 11:41:18;;;;;;;1.25;0.25;;;30.90;57.30;;;;;;5114002;28;20027;-75
2022/09/04 11:43:46;;;;;;;0.63;0.50;;;31.20;53.00;;;;;;5113778;28;20019;-75
2022/09/04 11:46:35;;;;;;;0.47;0.20;;;31.10;55.80;;;;;;5113934;28;20034;-75
2022/09/04 11:49:08;;;;;;;;;;;31.00;55.00;;;;;;5114062;28;20051;-75
2022/09/04 11:51:58;;;;;;;0.10;0.10;;;30.70;53.50;;;;;;5113740;28;20384;-76
2022/09/04 11:54:36;;;;;;;0.03;0.03;;;30.70;55.80;;;;;;5101481;28;20365;-75
2022/09/04 11:57:14;;;;;;;0.10;0.10;;;31.20;55.10;;;;;;5113619;28;20133;-75
2022/09/04 11:59:55;;;;;;;0.30;0.30;;;32.30;51.60;;;;;;5113532;28;20024;-79
2022/09/04 12:02:57;;;;;;;0.20;0.20;;;32.90;47.90;;;;;;5095285;28;20084;-77
2022/09/04 12:05:48;;;;;;;0.05;0.03;;;32.80;46.80;;;;;;5095287;28;20479;-75
2022/09/04 12:08:26;;;;;;;0.20;0.20;;;31.70;49.70;;;;;;5095254;28;20024;-75
2022/09/04 12:11:13;;;;;;;1.02;0.43;;;32.20;50.90;;;;;;5095286;28;20023;-75
2022/09/04 12:14:03;;;;;;;1.90;0.20;;;32.60;51.20;;;;;;5113409;28;20016;-75
2022/09/04 12:16:29;;;;;;;0.85;0.17;;;32.90;51.20;;;;;;5095118;28;20023;-75
2022/09/04 12:19:19;;;;;;;0.20;0.20;;;33.50;48.60;;;;;;5095222;28;20108;-75
2022/09/04 12:22:13;;;;;;;0.20;0.20;;;33.30;46.30;;;;;;5113762;28;20019;-75
2022/09/04 12:24:39;;;;;;;1.05;0.65;;;;;;;;;;5094998;28;20036;-77
2022/09/04 12:27:34;;;;;;;0.65;0.30;;;33.40;47.10;;;;;;5095253;28;20028;-76
2022/09/04 12:30:22;;;;;;;0.40;0.17;;;33.90;49.00;;;;;;5113686;28;20027;-77
2022/09/04 12:33:17;;;;;;;0.70;0.70;;;35.10;48.20;;;;;;5096387;28;20115;-78
2022/09/04 12:35:49;;;;;;;646.03;284.65;;;;;;;;;;5101328;28;20027;-78
2022/09/04 12:38:31;;;;;;;8.60;6.75;;;35.70;46.60;;;;;;5105417;28;20027;-78
2022/09/04 12:41:25;;;;;;;0.35;0.35;;;36.40;47.50;;;;;;5120649;28;20019;-79
2022/09/04 12:44:17;;;;;;;5.30;2.08;;;36.00;45.80;;;;;;5122818;28;20038;-79
2022/09/04 12:47:31;;;;;;;0.35;0.35;;;35.20;47.20;;;;;;5122777;28;20083;-79
2022/09/04 12:50:16;;;;;;;0.30;0.30;;;35.20;44.90;;;;;;5096527;28;20027;-78
2022/09/04 12:52:45;;;;;;;1.50;0.32;;;;;;;;;;5115847;28;20039;-77
2022/09/04 12:55:30;;;;;;;0.30;0.30;;;36.30;45.50;;;;;;5114875;28;20024;-77
2022/09/04 12:58:04;;;;;;;0.30;0.30;;;36.10;44.60;;;;;;5122460;28;20020;-77
2022/09/04 13:00:39;;;;;;;0.30;0.22;;;36.20;43.30;;;;;;5118977;28;20043;-77
2022/09/04 13:03:24;;;;;;;0.17;0.17;;;35.90;44.60;;;;;;5115636;28;20488;-77
2022/09/04 13:06:07;;;;;;;0.20;0.20;;;35.20;46.90;;;;;;5121714;28;20024;-79
2022/09/04 13:08:59;;;;;;;0.05;0.05;;;34.30;43.80;;;;;;5123190;28;20292;-76
2022/09/04 13:11:25;;;;;;;0.17;0.17;;;;;;;;;;5105152;28;20036;-75
2022/09/04 13:14:20;;;;;;;0.82;0.75;;;34.20;43.50;;;;;;5124403;28;20050;-76
2022/09/04 13:17:16;;;;;;;0.10;0.10;;;34.30;46.40;;;;;;5089091;28;20032;-78
2022/09/04 13:19:54;;;;;;;0.10;0.10;;;35.30;44.90;;;;;;5116372;28;20039;-76
2022/09/04 13:22:44;;;;;;;0.10;0.10;;;33.10;43.50;;;;;;5125281;28;20019;-77
2022/09/04 13:25:26;;;;;;;1.30;0.68;;;35.90;45.70;;;;;;5122738;28;20047;-77
2022/09/04 13:28:13;;;;;;;0.70;0.35;;;34.20;44.30;;;;;;5119122;28;20019;-76
2022/09/04 13:30:59;;;;;;;0.20;0.20;;;34.40;45.90;;;;;;5126178;28;20386;-79
2022/09/04 13:33:40;;;;;;;0.40;0.25;;;33.90;43.80;;;;;;5104000;28;20019;-78
2022/09/04 13:36:06;;;;;;;0.80;0.30;;;;;;;;;;5125024;28;20046;-77
2022/09/04 13:38:32;;;;;;;0.17;0.17;;;34.10;46.90;;;;;;5124796;28;20181;-76
2022/09/04 13:41:30;;;;;;;0.20;0.20;;;33.80;44.50;;;;;;5107740;28;20015;-79
2022/09/04 13:44:33;;;;;;;0.20;0.20;;;33.70;45.00;;;;;;5125610;28;20031;-78
2022/09/04 13:47:05;;;;;;;0.32;0.28;;;33.80;47.30;;;;;;5107608;28;20028;-77
2022/09/04 13:49:52;;;;;;;1.85;0.50;;;33.70;46.40;;;;;;5125357;28;20028;-78
2022/09/04 13:52:28;;;;;;;0.28;0.20;;;33.10;46.70;;;;;;5116084;28;20043;-75
2022/09/04 13:55:01;;;;;;;0.30;0.30;;;32.40;49.20;;;;;;5104145;28;20034;-75
2022/09/04 13:57:34;;;;;;;0.20;0.20;;;33.10;48.40;;;;;;5106887;28;20099;-76
2022/09/04 14:00:06;;;;;;;0.70;0.52;;;32.90;47.50;;;;;;5105172;28;20028;-75
2022/09/04 14:02:35;;;;;;;0.10;0.10;;;32.90;48.10;;;;;;5102262;28;20020;-76
2022/09/04 14:05:19;;;;;;;0.28;0.28;;;33.10;45.90;;;;;;5115701;28;20035;-75
2022/09/04 14:07:48;;;;;;;0.50;0.50;;;32.80;46.10;;;;;;5115597;28;20020;-75
2022/09/04 14:10:15;;;;;;;;;;;32.80;46.70;;;;;;5116091;28;20430;-76
2022/09/04 14:13:03;;;;;;;0.50;0.30;;;31.50;48.60;;;;;;5115689;28;19904;-75
2022/09/04 14:15:39;;;;;;;0.57;0.30;;;31.70;49.60;;;;;;5115346;28;20031;-75
2022/09/04 14:18:19;;;;;;;1.38;0.10;;;31.80;48.40;;;;;;5097307;28;20027;-76
2022/09/04 14:20:57;;;;;;;0.30;0.30;;;31.50;48.10;;;;;;5115437;28;20020;-75
2022/09/04 14:23:57;;;;;;;0.10;0.10;;;32.30;47.70;;;;;;5115413;28;20024;-77
2022/09/04 14:27:21;;;;;;;0.10;0.10;;;32.20;46.90;;;;;;5092182;28;20775;-75
2022/09/04 14:30:02;;;;;;;0.30;0.30;;;32.20;47.20;;;;;;5087119;28;20066;-75
2022/09/04 14:32:51;;;;;;;0.20;0.20;;;32.50;47.60;;;;;;5115112;28;20023;-77
2022/09/04 14:35:16;;;;;;;0.20;0.20;;;32.60;48.50;;;;;;5096749;28;20036;-75